sensor_id;sensor_type;location;lat;lon;timestamp;P1;durP1;ratioP1;P2;durP2;ratioP2
34541;SDS011;20784;51.332;12.410;2023-02-28T01:40:55;7.15;;;3.22;;
34541;SDS011;20784;51.332;12.410;2023-02-28T01:44:53;5.97;;;3.30;;
34541;SDS011;20784;51.332;12.410;2023-02-28T01:47:24;5.85;;;3.05;;
34541;SDS011;20784;51.332;12.410;2023-02-28T01:53:54;8.23;;;3.38;;
34541;SDS011;20784;51.332;12.410;2023-02-28T01:56:37;6.50;;;3.88;;
34541;SDS011;20784;51.332;12.410;2023-02-28T01:59:35;6.20;;;3.55;;
34541;SDS011;20784;51.332;12.410;2023-02-28T02:02:20;6.72;;;3.58;;
34541;SDS011;20784;51.332;12.410;2023-02-28T02:05:05;6.15;;;3.28;;
34541;SDS011;20784;51.332;12.410;2023-02-28T02:11:17;9.60;;;3.83;;
34541;SDS011;20784;51.332;12.410;2023-02-28T02:17:04;5.15;;;3.05;;
34541;SDS011;20784;51.332;12.410;2023-02-28T02:20:00;7.25;;;3.53;;
34541;SDS011;20784;51.332;12.410;2023-02-28T02:39:16;8.65;;;3.30;;
34541;SDS011;20784;51.332;12.410;2023-02-28T02:50:56;6.78;;;3.53;;
34541;SDS011;20784;51.332;12.410;2023-02-28T02:53:40;7.05;;;3.72;;
34541;SDS011;20784;51.332;12.410;2023-02-28T02:56:15;8.30;;;3.72;;
34541;SDS011;20784;51.332;12.410;2023-02-28T02:58:47;7.10;;;3.83;;
34541;SDS011;20784;51.332;12.410;2023-02-28T03:04:51;10.23;;;3.83;;
34541;SDS011;20784;51.332;12.410;2023-02-28T03:07:31;6.25;;;3.20;;
34541;SDS011;20784;51.332;12.410;2023-02-28T03:10:00;6.15;;;3.60;;
34541;SDS011;20784;51.332;12.410;2023-02-28T03:22:18;8.60;;;3.65;;
34541;SDS011;20784;51.332;12.410;2023-02-28T03:28:17;6.40;;;3.85;;
34541;SDS011;20784;51.332;12.410;2023-02-28T03:35:00;8.68;;;3.60;;
34541;SDS011;20784;51.332;12.410;2023-02-28T03:40:51;13.75;;;3.85;;
34541;SDS011;20784;51.332;12.410;2023-02-28T03:43:56;9.93;;;3.97;;
34541;SDS011;20784;51.332;12.410;2023-02-28T03:46:45;7.00;;;3.65;;
34541;SDS011;20784;51.332;12.410;2023-02-28T03:49:44;7.57;;;3.53;;
34541;SDS011;20784;51.332;12.410;2023-02-28T03:52:17;9.52;;;3.83;;
34541;SDS011;20784;51.332;12.410;2023-02-28T03:55:11;7.00;;;3.95;;
34541;SDS011;20784;51.332;12.410;2023-02-28T03:57:56;5.32;;;3.65;;
34541;SDS011;20784;51.332;12.410;2023-02-28T04:04:24;8.38;;;3.63;;
34541;SDS011;20784;51.332;12.410;2023-02-28T04:07:34;7.78;;;3.50;;
34541;SDS011;20784;51.332;12.410;2023-02-28T04:10:30;6.93;;;3.75;;
34541;SDS011;20784;51.332;12.410;2023-02-28T04:27:00;8.25;;;4.07;;
34541;SDS011;20784;51.332;12.410;2023-02-28T04:30:03;6.20;;;3.42;;
34541;SDS011;20784;51.332;12.410;2023-02-28T04:32:42;6.45;;;4.03;;
34541;SDS011;20784;51.332;12.410;2023-02-28T04:42:12;6.88;;;4.10;;
34541;SDS011;20784;51.332;12.410;2023-02-28T04:45:21;7.90;;;3.92;;
34541;SDS011;20784;51.332;12.410;2023-02-28T04:58:58;9.75;;;4.07;;
34541;SDS011;20784;51.332;12.410;2023-02-28T05:05:04;8.07;;;4.60;;
34541;SDS011;20784;51.332;12.410;2023-02-28T05:14:15;7.75;;;4.20;;
34541;SDS011;20784;51.332;12.410;2023-02-28T05:16:47;5.35;;;3.40;;
34541;SDS011;20784;51.332;12.410;2023-02-28T05:19:13;8.55;;;4.15;;
34541;SDS011;20784;51.332;12.410;2023-02-28T05:21:41;9.82;;;4.00;;
34541;SDS011;20784;51.332;12.410;2023-02-28T05:28:37;6.93;;;3.78;;
34541;SDS011;20784;51.332;12.410;2023-02-28T05:34:26;7.75;;;3.83;;
34541;SDS011;20784;51.332;12.410;2023-02-28T05:36:57;8.43;;;4.47;;
34541;SDS011;20784;51.332;12.410;2023-02-28T05:39:37;8.45;;;4.55;;
34541;SDS011;20784;51.332;12.410;2023-02-28T05:42:26;9.52;;;4.38;;
34541;SDS011;20784;51.332;12.410;2023-02-28T05:48:03;9.90;;;5.22;;
34541;SDS011;20784;51.332;12.410;2023-02-28T05:50:35;10.15;;;4.85;;
34541;SDS011;20784;51.332;12.410;2023-02-28T05:53:09;11.13;;;4.57;;
34541;SDS011;20784;51.332;12.410;2023-02-28T05:55:38;10.70;;;4.55;;
34541;SDS011;20784;51.332;12.410;2023-02-28T05:58:14;7.03;;;4.30;;
34541;SDS011;20784;51.332;12.410;2023-02-28T06:00:50;8.63;;;4.25;;
34541;SDS011;20784;51.332;12.410;2023-02-28T06:03:33;9.05;;;4.50;;
34541;SDS011;20784;51.332;12.410;2023-02-28T06:05:59;8.73;;;3.97;;
34541;SDS011;20784;51.332;12.410;2023-02-28T06:08:25;11.48;;;4.50;;
34541;SDS011;20784;51.332;12.410;2023-02-28T06:10:51;8.95;;;4.50;;
34541;SDS011;20784;51.332;12.410;2023-02-28T06:13:19;17.33;;;4.75;;
34541;SDS011;20784;51.332;12.410;2023-02-28T06:18:51;17.13;;;4.43;;
34541;SDS011;20784;51.332;12.410;2023-02-28T06:21:40;15.70;;;5.63;;
34541;SDS011;20784;51.332;12.410;2023-02-28T06:24:15;14.80;;;4.78;;
34541;SDS011;20784;51.332;12.410;2023-02-28T06:26:55;14.05;;;5.70;;
34541;SDS011;20784;51.332;12.410;2023-02-28T06:29:33;10.10;;;4.85;;
34541;SDS011;20784;51.332;12.410;2023-02-28T06:32:22;17.02;;;5.40;;
34541;SDS011;20784;51.332;12.410;2023-02-28T06:34:54;15.50;;;5.40;;
34541;SDS011;20784;51.332;12.410;2023-02-28T06:37:25;16.90;;;5.47;;
34541;SDS011;20784;51.332;12.410;2023-02-28T06:39:58;13.30;;;5.15;;
34541;SDS011;20784;51.332;12.410;2023-02-28T06:42:26;10.55;;;5.30;;
34541;SDS011;20784;51.332;12.410;2023-02-28T06:44:54;16.88;;;5.22;;
34541;SDS011;20784;51.332;12.410;2023-02-28T06:47:21;13.30;;;4.13;;
34541;SDS011;20784;51.332;12.410;2023-02-28T06:49:50;16.13;;;5.53;;
34541;SDS011;20784;51.332;12.410;2023-02-28T06:52:16;28.33;;;5.30;;
34541;SDS011;20784;51.332;12.410;2023-02-28T06:54:41;10.90;;;4.57;;
34541;SDS011;20784;51.332;12.410;2023-02-28T06:57:07;21.20;;;5.32;;
34541;SDS011;20784;51.332;12.410;2023-02-28T06:59:38;11.65;;;5.30;;
34541;SDS011;20784;51.332;12.410;2023-02-28T07:02:04;13.30;;;4.50;;
34541;SDS011;20784;51.332;12.410;2023-02-28T07:04:31;9.25;;;4.50;;
34541;SDS011;20784;51.332;12.410;2023-02-28T07:06:59;9.70;;;4.68;;
34541;SDS011;20784;51.332;12.410;2023-02-28T07:17:08;9.30;;;4.60;;
34541;SDS011;20784;51.332;12.410;2023-02-28T07:19:57;8.00;;;3.95;;
34541;SDS011;20784;51.332;12.410;2023-02-28T07:22:50;9.48;;;4.68;;
34541;SDS011;20784;51.332;12.410;2023-02-28T07:31:45;11.98;;;5.00;;
34541;SDS011;20784;51.332;12.410;2023-02-28T07:34:28;11.38;;;5.15;;
34541;SDS011;20784;51.332;12.410;2023-02-28T07:56:01;12.10;;;5.25;;
34541;SDS011;20784;51.332;12.410;2023-02-28T07:58:28;9.50;;;5.10;;
34541;SDS011;20784;51.332;12.410;2023-02-28T08:01:07;12.52;;;5.47;;
34541;SDS011;20784;51.332;12.410;2023-02-28T08:04:02;8.75;;;4.80;;
34541;SDS011;20784;51.332;12.410;2023-02-28T08:06:52;8.88;;;4.80;;
34541;SDS011;20784;51.332;12.410;2023-02-28T08:09:34;9.45;;;4.80;;
34541;SDS011;20784;51.332;12.410;2023-02-28T08:12:23;8.13;;;4.20;;
34541;SDS011;20784;51.332;12.410;2023-02-28T08:14:49;9.95;;;5.28;;
34541;SDS011;20784;51.332;12.410;2023-02-28T08:17:24;9.02;;;5.15;;
34541;SDS011;20784;51.332;12.410;2023-02-28T08:20:00;10.52;;;4.63;;
34541;SDS011;20784;51.332;12.410;2023-02-28T08:22:36;14.18;;;4.85;;
34541;SDS011;20784;51.332;12.410;2023-02-28T08:25:07;9.45;;;4.65;;
34541;SDS011;20784;51.332;12.410;2023-02-28T08:27:44;9.15;;;4.63;;
34541;SDS011;20784;51.332;12.410;2023-02-28T08:30:18;11.07;;;4.85;;
34541;SDS011;20784;51.332;12.410;2023-02-28T08:32:46;11.23;;;4.25;;
34541;SDS011;20784;51.332;12.410;2023-02-28T08:35:12;7.85;;;3.75;;
34541;SDS011;20784;51.332;12.410;2023-02-28T08:37:40;8.30;;;3.90;;
34541;SDS011;20784;51.332;12.410;2023-02-28T08:40:23;8.10;;;4.10;;
34541;SDS011;20784;51.332;12.410;2023-02-28T08:42:51;8.18;;;3.65;;
34541;SDS011;20784;51.332;12.410;2023-02-28T08:45:34;11.25;;;3.95;;
34541;SDS011;20784;51.332;12.410;2023-02-28T08:48:03;6.18;;;3.72;;
34541;SDS011;20784;51.332;12.410;2023-02-28T08:50:29;8.45;;;4.07;;
34541;SDS011;20784;51.332;12.410;2023-02-28T08:52:58;7.53;;;3.53;;
34541;SDS011;20784;51.332;12.410;2023-02-28T08:55:29;5.25;;;3.33;;
34541;SDS011;20784;51.332;12.410;2023-02-28T08:57:57;7.00;;;3.85;;
34541;SDS011;20784;51.332;12.410;2023-02-28T09:00:23;6.70;;;3.80;;
34541;SDS011;20784;51.332;12.410;2023-02-28T09:02:49;9.35;;;3.90;;
34541;SDS011;20784;51.332;12.410;2023-02-28T09:05:14;7.20;;;4.25;;
34541;SDS011;20784;51.332;12.410;2023-02-28T09:07:40;7.85;;;3.90;;
34541;SDS011;20784;51.332;12.410;2023-02-28T09:10:06;9.65;;;3.92;;
34541;SDS011;20784;51.332;12.410;2023-02-28T09:12:33;5.35;;;3.28;;
34541;SDS011;20784;51.332;12.410;2023-02-28T09:15:00;7.18;;;3.40;;
34541;SDS011;20784;51.332;12.410;2023-02-28T09:17:26;6.10;;;3.45;;
34541;SDS011;20784;51.332;12.410;2023-02-28T09:19:54;7.28;;;3.63;;
34541;SDS011;20784;51.332;12.410;2023-02-28T09:22:20;7.38;;;4.15;;
34541;SDS011;20784;51.332;12.410;2023-02-28T09:24:46;11.52;;;4.00;;
34541;SDS011;20784;51.332;12.410;2023-02-28T09:27:12;7.63;;;4.35;;
34541;SDS011;20784;51.332;12.410;2023-02-28T09:29:42;7.68;;;3.67;;
34541;SDS011;20784;51.332;12.410;2023-02-28T09:32:08;7.18;;;3.83;;
34541;SDS011;20784;51.332;12.410;2023-02-28T09:34:36;8.88;;;4.18;;
34541;SDS011;20784;51.332;12.410;2023-02-28T09:37:02;8.38;;;4.15;;
34541;SDS011;20784;51.332;12.410;2023-02-28T09:39:28;8.75;;;4.00;;
34541;SDS011;20784;51.332;12.410;2023-02-28T09:41:56;5.68;;;3.40;;
34541;SDS011;20784;51.332;12.410;2023-02-28T09:44:26;9.95;;;3.67;;
34541;SDS011;20784;51.332;12.410;2023-02-28T09:47:09;6.95;;;3.67;;
34541;SDS011;20784;51.332;12.410;2023-02-28T09:49:59;8.85;;;3.90;;
34541;SDS011;20784;51.332;12.410;2023-02-28T09:52:41;8.68;;;4.47;;
34541;SDS011;20784;51.332;12.410;2023-02-28T10:04:47;6.97;;;4.10;;
34541;SDS011;20784;51.332;12.410;2023-02-28T10:07:47;6.38;;;4.13;;
34541;SDS011;20784;51.332;12.410;2023-02-28T10:19:43;6.70;;;3.30;;
34541;SDS011;20784;51.332;12.410;2023-02-28T10:22:37;11.68;;;4.00;;
34541;SDS011;20784;51.332;12.410;2023-02-28T10:25:24;6.53;;;3.50;;
34541;SDS011;20784;51.332;12.410;2023-02-28T10:30:26;8.95;;;3.97;;
34541;SDS011;20784;51.332;12.410;2023-02-28T10:32:53;7.50;;;3.40;;
34541;SDS011;20784;51.332;12.410;2023-02-28T10:35:23;6.03;;;3.38;;
34541;SDS011;20784;51.332;12.410;2023-02-28T10:42:58;7.55;;;4.32;;
34541;SDS011;20784;51.332;12.410;2023-02-28T10:45:24;6.28;;;3.67;;
34541;SDS011;20784;51.332;12.410;2023-02-28T10:47:59;7.97;;;3.25;;
34541;SDS011;20784;51.332;12.410;2023-02-28T10:50:42;9.45;;;3.97;;
34541;SDS011;20784;51.332;12.410;2023-02-28T10:55:35;6.50;;;3.80;;
34541;SDS011;20784;51.332;12.410;2023-02-28T10:58:01;8.65;;;4.53;;
34541;SDS011;20784;51.332;12.410;2023-02-28T11:00:36;7.45;;;3.92;;
34541;SDS011;20784;51.332;12.410;2023-02-28T11:03:02;7.88;;;4.25;;
34541;SDS011;20784;51.332;12.410;2023-02-28T11:06:03;6.88;;;4.22;;
34541;SDS011;20784;51.332;12.410;2023-02-28T11:08:31;5.78;;;3.70;;
34541;SDS011;20784;51.332;12.410;2023-02-28T11:10:58;7.25;;;4.32;;
34541;SDS011;20784;51.332;12.410;2023-02-28T11:13:29;9.13;;;4.13;;
34541;SDS011;20784;51.332;12.410;2023-02-28T11:16:04;8.23;;;4.35;;
34541;SDS011;20784;51.332;12.410;2023-02-28T11:21:59;6.38;;;3.78;;
34541;SDS011;20784;51.332;12.410;2023-02-28T11:24:52;12.13;;;4.78;;
34541;SDS011;20784;51.332;12.410;2023-02-28T11:29:56;6.97;;;4.13;;
34541;SDS011;20784;51.332;12.410;2023-02-28T11:32:24;10.98;;;4.30;;
34541;SDS011;20784;51.332;12.410;2023-02-28T11:37:37;7.65;;;4.38;;
34541;SDS011;20784;51.332;12.410;2023-02-28T11:40:14;10.02;;;4.68;;
34541;SDS011;20784;51.332;12.410;2023-02-28T11:45:45;6.47;;;4.35;;
34541;SDS011;20784;51.332;12.410;2023-02-28T11:48:42;7.65;;;4.40;;
34541;SDS011;20784;51.332;12.410;2023-02-28T11:51:21;6.30;;;4.20;;
34541;SDS011;20784;51.332;12.410;2023-02-28T11:53:57;7.20;;;4.30;;
34541;SDS011;20784;51.332;12.410;2023-02-28T11:56:44;8.32;;;4.63;;
34541;SDS011;20784;51.332;12.410;2023-02-28T12:05:27;9.18;;;5.43;;
34541;SDS011;20784;51.332;12.410;2023-02-28T12:08:35;9.35;;;5.07;;
34541;SDS011;20784;51.332;12.410;2023-02-28T12:11:15;7.00;;;4.90;;
34541;SDS011;20784;51.332;12.410;2023-02-28T12:22:28;7.82;;;4.82;;
34541;SDS011;20784;51.332;12.410;2023-02-28T12:27:33;9.40;;;5.53;;
34541;SDS011;20784;51.332;12.410;2023-02-28T12:30:13;11.18;;;5.53;;
34541;SDS011;20784;51.332;12.410;2023-02-28T12:32:46;9.05;;;5.18;;
34541;SDS011;20784;51.332;12.410;2023-02-28T12:35:26;10.32;;;5.32;;
34541;SDS011;20784;51.332;12.410;2023-02-28T12:38:31;12.45;;;5.97;;
34541;SDS011;20784;51.332;12.410;2023-02-28T12:41:53;11.13;;;6.50;;
34541;SDS011;20784;51.332;12.410;2023-02-28T12:44:09;13.30;;;6.47;;
34541;SDS011;20784;51.332;12.410;2023-02-28T12:46:47;12.77;;;7.25;;
34541;SDS011;20784;51.332;12.410;2023-02-28T12:52:35;11.68;;;6.13;;
34541;SDS011;20784;51.332;12.410;2023-02-28T12:55:12;8.57;;;5.70;;
34541;SDS011;20784;51.332;12.410;2023-02-28T12:57:48;13.15;;;6.45;;
34541;SDS011;20784;51.332;12.410;2023-02-28T13:09:12;10.95;;;6.35;;
34541;SDS011;20784;51.332;12.410;2023-02-28T13:11:45;11.88;;;6.53;;
34541;SDS011;20784;51.332;12.410;2023-02-28T13:14:28;24.27;;;6.82;;
34541;SDS011;20784;51.332;12.410;2023-02-28T13:19:23;11.18;;;6.53;;
34541;SDS011;20784;51.332;12.410;2023-02-28T13:21:52;8.02;;;6.10;;
34541;SDS011;20784;51.332;12.410;2023-02-28T13:24:36;9.90;;;5.95;;
34541;SDS011;20784;51.332;12.410;2023-02-28T13:29:55;14.60;;;6.47;;
34541;SDS011;20784;51.332;12.410;2023-02-28T14:06:48;9.57;;;6.68;;
34541;SDS011;20784;51.332;12.410;2023-02-28T14:11:57;11.70;;;6.90;;
34541;SDS011;20784;51.332;12.410;2023-02-28T14:17:12;13.25;;;6.53;;
34541;SDS011;20784;51.332;12.410;2023-02-28T14:19:41;14.25;;;6.80;;
34541;SDS011;20784;51.332;12.410;2023-02-28T14:25:53;11.23;;;6.13;;
34541;SDS011;20784;51.332;12.410;2023-02-28T14:28:09;12.75;;;6.90;;
34541;SDS011;20784;51.332;12.410;2023-02-28T14:36:08;10.90;;;6.28;;
34541;SDS011;20784;51.332;12.410;2023-02-28T14:38:57;8.93;;;6.30;;
34541;SDS011;20784;51.332;12.410;2023-02-28T14:41:56;12.00;;;7.03;;
34541;SDS011;20784;51.332;12.410;2023-02-28T14:44:28;11.88;;;7.00;;
34541;SDS011;20784;51.332;12.410;2023-02-28T14:46:55;10.55;;;7.10;;
34541;SDS011;20784;51.332;12.410;2023-02-28T14:49:29;14.50;;;7.35;;
34541;SDS011;20784;51.332;12.410;2023-02-28T14:54:37;11.73;;;6.87;;
34541;SDS011;20784;51.332;12.410;2023-02-28T14:57:03;13.00;;;7.32;;
34541;SDS011;20784;51.332;12.410;2023-02-28T14:59:31;10.85;;;6.82;;
34541;SDS011;20784;51.332;12.410;2023-02-28T15:04:52;12.35;;;6.90;;
34541;SDS011;20784;51.332;12.410;2023-02-28T15:07:19;12.73;;;7.25;;
34541;SDS011;20784;51.332;12.410;2023-02-28T15:12:58;15.82;;;7.45;;
34541;SDS011;20784;51.332;12.410;2023-02-28T15:21:06;14.65;;;7.57;;
34541;SDS011;20784;51.332;12.410;2023-02-28T15:23:36;13.50;;;7.22;;
34541;SDS011;20784;51.332;12.410;2023-02-28T15:26:09;15.73;;;7.50;;
34541;SDS011;20784;51.332;12.410;2023-02-28T15:28:41;12.85;;;7.47;;
34541;SDS011;20784;51.332;12.410;2023-02-28T15:31:23;14.93;;;7.38;;
34541;SDS011;20784;51.332;12.410;2023-02-28T15:34:02;14.70;;;7.63;;
34541;SDS011;20784;51.332;12.410;2023-02-28T15:36:30;12.45;;;7.53;;
34541;SDS011;20784;51.332;12.410;2023-02-28T15:38:58;13.75;;;7.32;;
34541;SDS011;20784;51.332;12.410;2023-02-28T15:46:41;13.02;;;7.28;;
34541;SDS011;20784;51.332;12.410;2023-02-28T15:49:24;17.02;;;7.95;;
34541;SDS011;20784;51.332;12.410;2023-02-28T15:51:51;15.30;;;7.68;;
34541;SDS011;20784;51.332;12.410;2023-02-28T15:54:24;10.93;;;7.35;;
34541;SDS011;20784;51.332;12.410;2023-02-28T15:56:55;14.25;;;8.15;;
34541;SDS011;20784;51.332;12.410;2023-02-28T15:59:36;12.18;;;8.32;;
34541;SDS011;20784;51.332;12.410;2023-02-28T16:02:08;13.10;;;8.18;;
34541;SDS011;20784;51.332;12.410;2023-02-28T16:04:37;13.10;;;8.23;;
34541;SDS011;20784;51.332;12.410;2023-02-28T16:07:19;11.85;;;7.93;;
34541;SDS011;20784;51.332;12.410;2023-02-28T16:09:44;12.88;;;7.97;;
34541;SDS011;20784;51.332;12.410;2023-02-28T16:12:16;12.35;;;7.75;;
34541;SDS011;20784;51.332;12.410;2023-02-28T16:14:42;14.48;;;8.38;;
34541;SDS011;20784;51.332;12.410;2023-02-28T16:17:21;17.50;;;7.60;;
34541;SDS011;20784;51.332;12.410;2023-02-28T16:19:49;12.68;;;7.85;;
34541;SDS011;20784;51.332;12.410;2023-02-28T16:22:15;15.13;;;8.30;;
34541;SDS011;20784;51.332;12.410;2023-02-28T16:24:40;14.13;;;7.82;;
34541;SDS011;20784;51.332;12.410;2023-02-28T16:27:06;21.15;;;8.18;;
34541;SDS011;20784;51.332;12.410;2023-02-28T16:29:54;12.32;;;7.68;;
34541;SDS011;20784;51.332;12.410;2023-02-28T16:32:20;14.45;;;8.32;;
34541;SDS011;20784;51.332;12.410;2023-02-28T16:34:46;12.80;;;8.35;;
34541;SDS011;20784;51.332;12.410;2023-02-28T16:37:18;13.43;;;8.18;;
34541;SDS011;20784;51.332;12.410;2023-02-28T16:39:44;18.10;;;8.57;;
34541;SDS011;20784;51.332;12.410;2023-02-28T16:42:13;15.13;;;7.70;;
34541;SDS011;20784;51.332;12.410;2023-02-28T16:44:47;14.15;;;8.05;;
34541;SDS011;20784;51.332;12.410;2023-02-28T16:47:13;14.75;;;8.30;;
34541;SDS011;20784;51.332;12.410;2023-02-28T16:49:38;17.60;;;8.40;;
34541;SDS011;20784;51.332;12.410;2023-02-28T16:52:07;15.48;;;8.68;;
34541;SDS011;20784;51.332;12.410;2023-02-28T16:54:33;13.77;;;8.13;;
34541;SDS011;20784;51.332;12.410;2023-02-28T16:56:58;13.93;;;8.43;;
34541;SDS011;20784;51.332;12.410;2023-02-28T16:59:24;13.82;;;8.63;;
34541;SDS011;20784;51.332;12.410;2023-02-28T17:01:52;14.10;;;8.93;;
34541;SDS011;20784;51.332;12.410;2023-02-28T17:04:18;15.52;;;9.07;;
34541;SDS011;20784;51.332;12.410;2023-02-28T17:06:47;13.73;;;8.55;;
34541;SDS011;20784;51.332;12.410;2023-02-28T17:09:16;20.02;;;9.30;;
34541;SDS011;20784;51.332;12.410;2023-02-28T17:11:56;16.90;;;9.43;;
34541;SDS011;20784;51.332;12.410;2023-02-28T17:15:00;16.02;;;9.10;;
34541;SDS011;20784;51.332;12.410;2023-02-28T17:17:28;19.50;;;9.65;;
34541;SDS011;20784;51.332;12.410;2023-02-28T17:19:55;22.77;;;9.65;;
34541;SDS011;20784;51.332;12.410;2023-02-28T17:22:20;20.63;;;10.13;;
34541;SDS011;20784;51.332;12.410;2023-02-28T17:24:46;19.38;;;9.40;;
34541;SDS011;20784;51.332;12.410;2023-02-28T17:27:12;19.88;;;10.43;;
34541;SDS011;20784;51.332;12.410;2023-02-28T17:29:40;27.73;;;11.27;;
34541;SDS011;20784;51.332;12.410;2023-02-28T17:32:06;17.60;;;10.05;;
34541;SDS011;20784;51.332;12.410;2023-02-28T17:34:32;19.83;;;10.48;;
34541;SDS011;20784;51.332;12.410;2023-02-28T17:36:57;23.95;;;10.93;;
34541;SDS011;20784;51.332;12.410;2023-02-28T17:39:23;19.42;;;10.20;;
34541;SDS011;20784;51.332;12.410;2023-02-28T17:41:52;17.75;;;10.25;;
34541;SDS011;20784;51.332;12.410;2023-02-28T17:44:21;18.65;;;10.55;;
34541;SDS011;20784;51.332;12.410;2023-02-28T17:46:49;21.55;;;11.00;;
34541;SDS011;20784;51.332;12.410;2023-02-28T17:49:16;18.20;;;11.38;;
34541;SDS011;20784;51.332;12.410;2023-02-28T17:51:44;19.83;;;10.73;;
34541;SDS011;20784;51.332;12.410;2023-02-28T17:54:11;23.38;;;10.50;;
34541;SDS011;20784;51.332;12.410;2023-02-28T17:56:38;19.85;;;10.75;;
34541;SDS011;20784;51.332;12.410;2023-02-28T17:59:08;23.83;;;11.55;;
34541;SDS011;20784;51.332;12.410;2023-02-28T18:01:37;18.77;;;10.20;;
34541;SDS011;20784;51.332;12.410;2023-02-28T18:04:03;24.27;;;10.38;;
34541;SDS011;20784;51.332;12.410;2023-02-28T18:06:38;17.42;;;10.32;;
34541;SDS011;20784;51.332;12.410;2023-02-28T18:09:16;20.00;;;10.43;;
34541;SDS011;20784;51.332;12.410;2023-02-28T18:11:46;19.98;;;10.18;;
34541;SDS011;20784;51.332;12.410;2023-02-28T18:14:15;15.50;;;10.60;;
34541;SDS011;20784;51.332;12.410;2023-02-28T18:16:43;20.77;;;10.38;;
34541;SDS011;20784;51.332;12.410;2023-02-28T18:19:09;25.00;;;11.55;;
34541;SDS011;20784;51.332;12.410;2023-02-28T18:21:40;21.20;;;11.48;;
34541;SDS011;20784;51.332;12.410;2023-02-28T18:24:06;31.80;;;12.98;;
34541;SDS011;20784;51.332;12.410;2023-02-28T18:26:33;27.90;;;13.25;;
34541;SDS011;20784;51.332;12.410;2023-02-28T18:29:04;27.70;;;14.15;;
34541;SDS011;20784;51.332;12.410;2023-02-28T18:31:31;35.60;;;16.95;;
34541;SDS011;20784;51.332;12.410;2023-02-28T18:33:57;39.50;;;16.88;;
34541;SDS011;20784;51.332;12.410;2023-02-28T18:39:12;33.17;;;18.20;;
34541;SDS011;20784;51.332;12.410;2023-02-28T18:41:38;33.55;;;16.60;;
34541;SDS011;20784;51.332;12.410;2023-02-28T18:44:04;35.05;;;17.02;;
34541;SDS011;20784;51.332;12.410;2023-02-28T18:46:33;34.78;;;16.88;;
34541;SDS011;20784;51.332;12.410;2023-02-28T18:48:59;33.88;;;15.88;;
34541;SDS011;20784;51.332;12.410;2023-02-28T18:51:26;27.38;;;14.98;;
34541;SDS011;20784;51.332;12.410;2023-02-28T18:53:52;31.02;;;15.30;;
34541;SDS011;20784;51.332;12.410;2023-02-28T18:56:19;28.48;;;14.35;;
34541;SDS011;20784;51.332;12.410;2023-02-28T18:58:46;29.40;;;15.02;;
34541;SDS011;20784;51.332;12.410;2023-02-28T19:01:19;25.92;;;14.32;;
34541;SDS011;20784;51.332;12.410;2023-02-28T19:03:54;34.50;;;15.52;;
34541;SDS011;20784;51.332;12.410;2023-02-28T19:06:20;30.60;;;15.48;;
34541;SDS011;20784;51.332;12.410;2023-02-28T19:08:47;31.35;;;15.75;;
34541;SDS011;20784;51.332;12.410;2023-02-28T19:11:17;32.67;;;16.88;;
34541;SDS011;20784;51.332;12.410;2023-02-28T19:13:46;24.95;;;15.45;;
34541;SDS011;20784;51.332;12.410;2023-02-28T19:16:13;28.30;;;15.32;;
34541;SDS011;20784;51.332;12.410;2023-02-28T19:18:40;34.53;;;18.67;;
34541;SDS011;20784;51.332;12.410;2023-02-28T19:21:06;35.15;;;16.90;;
34541;SDS011;20784;51.332;12.410;2023-02-28T19:23:34;30.40;;;17.92;;
34541;SDS011;20784;51.332;12.410;2023-02-28T19:26:04;27.85;;;15.30;;
34541;SDS011;20784;51.332;12.410;2023-02-28T19:28:37;29.40;;;16.15;;
34541;SDS011;20784;51.332;12.410;2023-02-28T19:31:03;38.88;;;17.08;;
34541;SDS011;20784;51.332;12.410;2023-02-28T19:33:32;27.50;;;16.20;;
34541;SDS011;20784;51.332;12.410;2023-02-28T19:36:00;28.73;;;16.15;;
34541;SDS011;20784;51.332;12.410;2023-02-28T19:38:26;31.20;;;16.33;;
34541;SDS011;20784;51.332;12.410;2023-02-28T19:41:05;31.48;;;16.23;;
34541;SDS011;20784;51.332;12.410;2023-02-28T19:43:32;32.55;;;17.10;;
34541;SDS011;20784;51.332;12.410;2023-02-28T19:45:58;38.38;;;18.05;;
34541;SDS011;20784;51.332;12.410;2023-02-28T19:48:24;32.67;;;15.48;;
34541;SDS011;20784;51.332;12.410;2023-02-28T19:50:55;37.03;;;16.63;;
34541;SDS011;20784;51.332;12.410;2023-02-28T19:53:32;28.23;;;15.98;;
34541;SDS011;20784;51.332;12.410;2023-02-28T19:55:58;29.58;;;15.63;;
34541;SDS011;20784;51.332;12.410;2023-02-28T19:58:24;44.20;;;17.65;;
34541;SDS011;20784;51.332;12.410;2023-02-28T20:00:53;32.20;;;17.20;;
34541;SDS011;20784;51.332;12.410;2023-02-28T20:03:19;31.27;;;16.30;;
34541;SDS011;20784;51.332;12.410;2023-02-28T20:05:45;37.30;;;17.83;;
34541;SDS011;20784;51.332;12.410;2023-02-28T20:08:12;37.15;;;17.98;;
34541;SDS011;20784;51.332;12.410;2023-02-28T20:10:38;37.22;;;19.23;;
34541;SDS011;20784;51.332;12.410;2023-02-28T20:13:06;37.35;;;18.45;;
34541;SDS011;20784;51.332;12.410;2023-02-28T20:15:31;41.85;;;19.35;;
34541;SDS011;20784;51.332;12.410;2023-02-28T20:17:57;36.15;;;19.58;;
34541;SDS011;20784;51.332;12.410;2023-02-28T20:20:24;32.28;;;19.50;;
34541;SDS011;20784;51.332;12.410;2023-02-28T20:22:50;35.53;;;19.67;;
34541;SDS011;20784;51.332;12.410;2023-02-28T20:25:15;33.17;;;19.38;;
34541;SDS011;20784;51.332;12.410;2023-02-28T20:27:41;45.88;;;20.33;;
34541;SDS011;20784;51.332;12.410;2023-02-28T20:30:07;47.65;;;23.30;;
34541;SDS011;20784;51.332;12.410;2023-02-28T20:32:34;45.58;;;22.23;;
34541;SDS011;20784;51.332;12.410;2023-02-28T20:35:00;49.60;;;20.38;;
34541;SDS011;20784;51.332;12.410;2023-02-28T20:37:26;39.13;;;20.58;;
34541;SDS011;20784;51.332;12.410;2023-02-28T20:39:52;32.53;;;19.33;;
34541;SDS011;20784;51.332;12.410;2023-02-28T20:42:18;44.92;;;20.08;;
34541;SDS011;20784;51.332;12.410;2023-02-28T20:44:44;34.72;;;19.45;;
34541;SDS011;20784;51.332;12.410;2023-02-28T20:47:12;35.17;;;19.60;;
34541;SDS011;20784;51.332;12.410;2023-02-28T20:49:42;49.00;;;23.05;;
34541;SDS011;20784;51.332;12.410;2023-02-28T20:52:08;38.85;;;22.40;;
34541;SDS011;20784;51.332;12.410;2023-02-28T20:54:34;43.70;;;22.35;;
34541;SDS011;20784;51.332;12.410;2023-02-28T20:57:00;46.72;;;21.90;;
34541;SDS011;20784;51.332;12.410;2023-02-28T20:59:25;45.75;;;22.60;;
34541;SDS011;20784;51.332;12.410;2023-02-28T21:01:51;38.53;;;20.27;;
34541;SDS011;20784;51.332;12.410;2023-02-28T21:04:20;49.33;;;22.92;;
34541;SDS011;20784;51.332;12.410;2023-02-28T21:06:46;49.78;;;25.48;;
34541;SDS011;20784;51.332;12.410;2023-02-28T21:09:14;41.60;;;24.25;;
34541;SDS011;20784;51.332;12.410;2023-02-28T21:11:43;42.53;;;23.65;;
34541;SDS011;20784;51.332;12.410;2023-02-28T21:14:13;42.85;;;23.25;;
34541;SDS011;20784;51.332;12.410;2023-02-28T21:16:40;37.63;;;20.73;;
34541;SDS011;20784;51.332;12.410;2023-02-28T21:21:45;34.10;;;19.73;;
34541;SDS011;20784;51.332;12.410;2023-02-28T21:24:13;38.83;;;20.27;;
34541;SDS011;20784;51.332;12.410;2023-02-28T21:26:42;39.38;;;19.02;;
34541;SDS011;20784;51.332;12.410;2023-02-28T21:29:09;32.60;;;19.38;;
34541;SDS011;20784;51.332;12.410;2023-02-28T21:31:37;39.00;;;19.50;;
34541;SDS011;20784;51.332;12.410;2023-02-28T21:34:06;38.33;;;20.92;;
34541;SDS011;20784;51.332;12.410;2023-02-28T21:36:36;41.00;;;20.10;;
34541;SDS011;20784;51.332;12.410;2023-02-28T21:39:17;40.60;;;20.02;;